createdAt,value
2019-03-01T00:00:06.527Z,4.08
2019-03-01T00:02:35.411Z,3.84
2019-03-01T00:05:06.051Z,3.90
2019-03-01T00:07:38.528Z,4.06
2019-03-01T00:10:10.926Z,3.77
2019-03-01T00:12:43.346Z,3.79
2019-03-01T00:15:15.701Z,3.68
2019-03-01T00:17:46.307Z,3.64
2019-03-01T00:20:18.720Z,3.81
2019-03-01T00:22:51.257Z,3.92
2019-03-01T00:25:23.628Z,3.73
2019-03-01T00:27:55.994Z,3.69
2019-03-01T00:30:28.322Z,3.65
2019-03-01T00:33:00.768Z,3.58
2019-03-01T00:35:29.234Z,3.55
2019-03-01T00:37:59.645Z,3.53
2019-03-01T00:40:30.107Z,3.63
2019-03-01T00:43:02.386Z,3.46
2019-03-01T00:45:29.025Z,3.44
2019-03-01T00:47:55.603Z,3.32
2019-03-01T00:50:22.268Z,3.32
2019-03-01T00:52:49.137Z,3.24
2019-03-01T00:55:15.779Z,3.30
2019-03-01T00:57:42.456Z,3.18
2019-03-01T01:00:14.943Z,2.89
2019-03-01T01:02:41.548Z,3.06
2019-03-01T01:05:08.563Z,3.17
2019-03-01T01:07:35.289Z,3.21
2019-03-01T01:10:03.206Z,3.19
2019-03-01T01:12:29.964Z,3.07
2019-03-01T01:14:56.539Z,3.10
2019-03-01T01:17:23.232Z,2.99
2019-03-01T01:19:52.895Z,3.07
2019-03-01T01:22:19.575Z,3.07
2019-03-01T01:24:46.234Z,3.12
2019-03-01T01:27:17.664Z,3.00
2019-03-01T01:29:52.608Z,2.95
2019-03-01T01:32:20.957Z,2.96
2019-03-01T01:34:47.544Z,2.87
2019-03-01T01:37:14.212Z,2.80
2019-03-01T01:39:40.766Z,2.77
2019-03-01T01:42:07.650Z,2.69
2019-03-01T01:44:34.431Z,2.74
2019-03-01T01:47:01.160Z,2.78
2019-03-01T01:49:27.731Z,2.74
2019-03-01T01:51:54.356Z,2.63
2019-03-01T01:54:20.926Z,2.47
2019-03-01T01:56:47.688Z,2.44
2019-03-01T01:59:14.524Z,2.54
2019-03-01T02:02:38.729Z,2.59
2019-03-01T02:05:06.194Z,2.50
2019-03-01T02:07:33.239Z,2.36
2019-03-01T02:10:00.334Z,2.34
2019-03-01T02:12:27.199Z,2.31
2019-03-01T02:15:32.255Z,2.30
2019-03-01T02:17:59.106Z,2.20
2019-03-01T02:20:25.967Z,2.01
2019-03-01T02:22:52.679Z,2.14
2019-03-01T02:25:19.523Z,2.04
2019-03-01T02:27:47.376Z,2.10
2019-03-01T02:30:19.437Z,2.02
2019-03-01T02:32:46.060Z,2.00
2019-03-01T02:35:16.531Z,1.95
2019-03-01T02:37:43.445Z,1.86
2019-03-01T02:40:13.487Z,2.03
2019-03-01T02:42:41.590Z,2.06
2019-03-01T02:45:15.081Z,1.90
2019-03-01T02:47:45.164Z,1.93
2019-03-01T02:50:15.814Z,1.99
2019-03-01T02:52:42.579Z,1.96
2019-03-01T02:55:14.784Z,1.85
2019-03-01T02:57:41.659Z,1.88
2019-03-01T03:00:14.245Z,1.85
2019-03-01T03:02:41.205Z,1.77
2019-03-01T03:05:08.178Z,1.83
2019-03-01T03:07:36.804Z,1.75
2019-03-01T03:10:06.499Z,1.81
2019-03-01T03:12:33.176Z,1.79
2019-03-01T03:14:59.869Z,1.79
2019-03-01T03:17:26.603Z,1.79
2019-03-01T03:19:53.246Z,1.65
2019-03-01T03:22:19.846Z,1.61
2019-03-01T03:24:46.415Z,1.59
2019-03-01T03:27:13.002Z,1.63
2019-03-01T03:29:39.890Z,1.69
2019-03-01T03:32:06.529Z,1.67
2019-03-01T03:34:33.191Z,1.65
2019-03-01T03:36:59.950Z,1.43
2019-03-01T03:39:26.632Z,1.40
2019-03-01T03:41:53.199Z,1.32
2019-03-01T03:44:20.002Z,1.27
2019-03-01T03:46:46.648Z,1.25
2019-03-01T03:49:13.253Z,1.28
2019-03-01T03:51:39.830Z,1.33
2019-03-01T03:54:06.441Z,1.32
2019-03-01T03:56:33.303Z,1.34
2019-03-01T03:59:03.290Z,1.30
2019-03-01T04:01:30.132Z,1.25
2019-03-01T04:03:56.917Z,1.24
2019-03-01T04:06:24.616Z,1.21
2019-03-01T04:08:51.174Z,1.24
2019-03-01T04:11:17.762Z,1.22
2019-03-01T04:13:44.300Z,1.19
2019-03-01T04:16:11.016Z,1.13
2019-03-01T04:18:37.790Z,1.09
2019-03-01T04:21:04.489Z,1.11
2019-03-01T04:23:31.156Z,1.13
2019-03-01T04:25:57.698Z,1.33
2019-03-01T04:28:24.369Z,1.27
2019-03-01T04:30:50.957Z,1.35
2019-03-01T04:33:18.869Z,1.27
2019-03-01T04:35:45.544Z,1.29
2019-03-01T04:38:12.162Z,1.27
2019-03-01T04:40:38.929Z,1.30
2019-03-01T04:43:05.486Z,1.28
2019-03-01T04:45:32.134Z,1.24
2019-03-01T04:47:58.738Z,1.20
2019-03-01T04:50:28.091Z,1.27
2019-03-01T04:52:54.687Z,1.17
2019-03-01T04:55:24.875Z,1.08
2019-03-01T04:57:51.555Z,1.12
2019-03-01T05:00:22.665Z,1.24
2019-03-01T05:02:49.585Z,1.19
2019-03-01T05:05:19.556Z,1.20
2019-03-01T05:07:46.458Z,1.16
2019-03-01T05:10:15.313Z,1.06
2019-03-01T05:12:42.373Z,1.15
2019-03-01T05:15:14.787Z,1.06
2019-03-01T05:17:42.241Z,1.17
2019-03-01T05:20:09.177Z,1.26
2019-03-01T05:22:35.727Z,1.02
2019-03-01T05:25:06.084Z,1.13
2019-03-01T05:27:32.725Z,1.15
2019-03-01T05:29:59.280Z,1.09
2019-03-01T05:32:25.896Z,1.09
2019-03-01T05:34:52.459Z,1.03
2019-03-01T05:37:19.014Z,1.07
2019-03-01T05:39:45.632Z,1.04
2019-03-01T05:42:16.467Z,0.98
2019-03-01T05:44:43.338Z,0.98
2019-03-01T05:47:10.759Z,1.09
2019-03-01T05:49:39.035Z,1.18
2019-03-01T05:52:07.553Z,1.10
2019-03-01T05:54:35.015Z,0.97
2019-03-01T05:57:02.882Z,0.86
2019-03-01T05:59:30.332Z,0.71
2019-03-01T06:02:03.342Z,0.74
2019-03-01T06:04:38.662Z,0.87
2019-03-01T06:07:11.302Z,0.94
2019-03-01T06:09:43.934Z,0.95
2019-03-01T06:12:16.231Z,1.03
2019-03-01T06:14:48.677Z,1.11
2019-03-01T06:17:20.977Z,1.13
2019-03-01T06:19:55.476Z,1.10
2019-03-01T06:22:27.882Z,1.23
2019-03-01T06:24:58.347Z,1.45
2019-03-01T06:27:30.772Z,1.54
2019-03-01T06:30:03.141Z,1.52
2019-03-01T06:32:33.899Z,1.54
2019-03-01T06:35:07.588Z,1.55
2019-03-01T06:37:40.020Z,1.67
2019-03-01T06:40:12.432Z,1.72
2019-03-01T06:42:42.951Z,1.86
2019-03-01T06:45:13.390Z,1.86
2019-03-01T06:47:44.504Z,2.13
2019-03-01T06:50:13.610Z,2.18
2019-03-01T06:52:40.325Z,1.94
2019-03-01T06:55:12.675Z,2.03
2019-03-01T06:57:39.244Z,2.28
2019-03-01T07:00:10.161Z,2.10
2019-03-01T07:02:38.762Z,2.20
2019-03-01T07:05:05.672Z,1.83
2019-03-01T07:07:32.271Z,2.12
2019-03-01T07:09:58.838Z,2.24
2019-03-01T07:12:25.465Z,2.40
2019-03-01T07:14:52.035Z,2.05
2019-03-01T07:17:18.759Z,2.06
2019-03-01T07:19:45.340Z,2.03
2019-03-01T07:22:12.037Z,2.32
2019-03-01T07:24:38.678Z,2.43
2019-03-01T07:27:05.482Z,2.43
2019-03-01T07:29:32.219Z,2.27
2019-03-01T07:31:58.859Z,2.68
2019-03-01T07:34:26.116Z,2.69
2019-03-01T07:36:52.699Z,2.72
2019-03-01T07:39:19.324Z,2.66
2019-03-01T07:41:45.925Z,2.78
2019-03-01T07:44:13.812Z,2.77
2019-03-01T07:46:40.632Z,2.81
2019-03-01T07:49:07.241Z,2.91
2019-03-01T07:51:35.922Z,2.99
2019-03-01T07:54:02.790Z,3.14
2019-03-01T07:56:29.595Z,3.19
2019-03-01T07:58:57.478Z,3.41
2019-03-01T08:01:25.740Z,3.54
2019-03-01T08:03:53.834Z,3.40
2019-03-01T08:06:23.635Z,3.37
2019-03-01T08:08:51.310Z,3.67
2019-03-01T08:11:17.997Z,3.54
2019-03-01T08:13:44.713Z,3.54
2019-03-01T08:16:11.410Z,3.61
2019-03-01T08:18:44.262Z,3.59
2019-03-01T08:21:10.279Z,3.83
2019-03-01T08:23:38.029Z,4.03
2019-03-01T08:26:04.626Z,3.92
2019-03-01T08:28:32.772Z,4.09
2019-03-01T08:30:59.451Z,4.22
2019-03-01T08:33:26.015Z,4.06
2019-03-01T08:35:52.757Z,3.94
2019-03-01T08:38:19.322Z,3.82
2019-03-01T08:40:49.840Z,4.10
2019-03-01T08:43:17.447Z,4.15
2019-03-01T08:45:44.087Z,3.91
2019-03-01T08:48:10.695Z,4.09
2019-03-01T08:50:37.351Z,4.33
2019-03-01T08:53:04.227Z,4.16
2019-03-01T08:55:31.210Z,4.24
2019-03-01T08:57:59.468Z,4.18
2019-03-01T09:00:32.397Z,4.07
2019-03-01T09:03:04.930Z,4.06
2019-03-01T09:05:32.038Z,4.14
2019-03-01T09:07:58.739Z,4.52
2019-03-01T09:10:29.244Z,4.42
2019-03-01T09:12:54.298Z,4.34
2019-03-01T09:15:21.171Z,4.51
2019-03-01T09:17:47.867Z,4.33
2019-03-01T09:20:15.092Z,4.33
2019-03-01T09:22:42.630Z,4.13
2019-03-01T09:25:12.475Z,4.25
2019-03-01T09:27:39.290Z,4.48
2019-03-01T09:30:11.681Z,4.53
2019-03-01T09:32:38.538Z,4.76
2019-03-01T09:35:12.810Z,4.70
2019-03-01T09:37:39.623Z,4.90
2019-03-01T09:40:06.535Z,4.47
2019-03-01T09:42:33.312Z,4.63
2019-03-01T09:45:06.110Z,4.61
2019-03-01T09:47:33.563Z,4.82
2019-03-01T09:50:06.295Z,4.91
2019-03-01T09:52:32.990Z,4.83
2019-03-01T09:54:59.557Z,4.86
2019-03-01T09:57:26.192Z,4.95
2019-03-01T09:59:53.536Z,4.69
2019-03-01T10:02:20.457Z,4.93
2019-03-01T10:04:47.010Z,4.91
2019-03-01T10:07:13.727Z,5.10
2019-03-01T10:09:43.553Z,5.09
2019-03-01T10:12:10.420Z,5.14
2019-03-01T10:14:37.099Z,5.29
2019-03-01T10:17:03.687Z,5.07
2019-03-01T10:19:30.381Z,4.96
2019-03-01T10:21:56.998Z,5.07
2019-03-01T10:24:23.749Z,4.98
2019-03-01T10:26:50.436Z,5.21
2019-03-01T10:29:17.026Z,5.14
2019-03-01T10:31:43.648Z,5.10
2019-03-01T10:34:10.525Z,5.03
2019-03-01T10:36:37.157Z,5.24
2019-03-01T10:39:09.563Z,5.39
2019-03-01T10:41:36.337Z,5.38
2019-03-01T10:44:03.198Z,5.18
2019-03-01T10:46:29.931Z,5.12
2019-03-01T10:48:56.659Z,5.19
2019-03-01T10:51:23.199Z,5.31
2019-03-01T10:53:49.814Z,5.11
2019-03-01T10:56:16.383Z,5.01
2019-03-01T10:58:42.989Z,5.42
2019-03-01T11:01:09.719Z,5.25
2019-03-01T11:03:36.566Z,4.94
2019-03-01T11:06:03.632Z,4.96
2019-03-01T11:08:30.295Z,5.30
2019-03-01T11:10:56.881Z,4.88
2019-03-01T11:13:23.456Z,4.93
2019-03-01T11:15:50.166Z,5.27
2019-03-01T11:18:16.862Z,5.46
2019-03-01T11:20:43.769Z,5.05
2019-03-01T11:23:10.603Z,5.27
2019-03-01T11:25:37.272Z,4.98
2019-03-01T11:28:04.922Z,4.72
2019-03-01T11:30:34.827Z,4.89
2019-03-01T11:33:01.697Z,4.66
2019-03-01T11:35:28.686Z,4.82
2019-03-01T11:37:55.428Z,4.83
2019-03-01T11:40:27.761Z,4.99
2019-03-01T11:42:54.622Z,5.16
2019-03-01T11:45:21.591Z,5.06
2019-03-01T11:47:48.382Z,4.96
2019-03-01T11:50:19.965Z,5.06
2019-03-01T11:52:46.737Z,4.94
2019-03-01T11:55:14.205Z,5.22
2019-03-01T11:57:41.224Z,5.24
2019-03-01T12:01:04.880Z,4.98
2019-03-01T12:03:31.664Z,4.98
2019-03-01T12:05:58.263Z,4.96
2019-03-01T12:08:24.871Z,5.17
2019-03-01T12:10:51.538Z,5.55
2019-03-01T12:13:18.110Z,5.45
2019-03-01T12:15:44.816Z,5.21
2019-03-01T12:18:11.393Z,5.29
2019-03-01T12:20:39.979Z,4.99
2019-03-01T12:23:06.723Z,5.41
2019-03-01T12:25:33.276Z,5.36
2019-03-01T12:28:00.081Z,5.22
2019-03-01T12:30:26.858Z,5.17
2019-03-01T12:32:53.824Z,5.39
2019-03-01T12:35:20.551Z,4.88
2019-03-01T12:37:47.357Z,5.01
2019-03-01T12:40:22.104Z,5.02
2019-03-01T12:42:48.770Z,4.94
2019-03-01T12:45:15.655Z,4.91
2019-03-01T12:47:42.747Z,4.93
2019-03-01T12:50:12.857Z,5.04
2019-03-01T12:52:39.988Z,5.07
2019-03-01T12:55:12.421Z,5.10
2019-03-01T12:57:39.259Z,5.04
2019-03-01T13:00:11.882Z,5.08
2019-03-01T13:02:38.967Z,4.93
2019-03-01T13:05:10.187Z,5.15
2019-03-01T13:07:37.073Z,5.06
2019-03-01T13:10:09.518Z,5.08
2019-03-01T13:12:36.187Z,5.27
2019-03-01T13:15:05.876Z,5.25
2019-03-01T13:17:37.242Z,5.07
2019-03-01T13:20:07.995Z,5.07
2019-03-01T13:22:34.970Z,5.33
2019-03-01T13:25:02.093Z,5.40
2019-03-01T13:27:28.875Z,5.25
2019-03-01T13:29:58.756Z,5.51
2019-03-01T13:32:24.086Z,5.59
2019-03-01T13:34:50.664Z,5.89
2019-03-01T13:37:20.166Z,5.69
2019-03-01T13:39:48.791Z,6.02
2019-03-01T13:42:16.297Z,5.87
2019-03-01T13:44:42.842Z,5.73
2019-03-01T13:47:09.493Z,5.43
2019-03-01T13:49:36.239Z,5.22
2019-03-01T13:52:03.234Z,5.06
2019-03-01T13:54:31.078Z,5.01
2019-03-01T13:56:57.848Z,5.14
2019-03-01T13:59:24.426Z,5.04
2019-03-01T14:01:51.073Z,4.94
2019-03-01T14:04:17.747Z,5.04
2019-03-01T14:06:44.387Z,4.92
2019-03-01T14:09:12.091Z,4.91
2019-03-01T14:11:38.843Z,4.94
2019-03-01T14:14:05.426Z,4.99
2019-03-01T14:16:32.022Z,5.13
2019-03-01T14:18:58.800Z,4.96
2019-03-01T14:21:25.375Z,4.78
2019-03-01T14:23:54.161Z,4.95
2019-03-01T14:26:20.824Z,4.97
2019-03-01T14:28:47.747Z,4.91
2019-03-01T14:31:14.488Z,4.80
2019-03-01T14:33:41.080Z,4.79
2019-03-01T14:36:07.737Z,5.04
2019-03-01T14:38:34.577Z,4.87
2019-03-01T14:41:01.258Z,4.84
2019-03-01T14:43:29.067Z,4.82
2019-03-01T14:45:55.974Z,4.62
2019-03-01T14:48:23.716Z,4.73
2019-03-01T14:50:50.309Z,4.72
2019-03-01T14:53:17.055Z,4.60
2019-03-01T14:55:49.414Z,4.50
2019-03-01T14:58:22.333Z,4.60
2019-03-01T15:00:56.033Z,4.62
2019-03-01T15:03:24.639Z,4.49
2019-03-01T15:05:51.205Z,4.63
2019-03-01T15:08:17.939Z,4.56
2019-03-01T15:10:47.765Z,4.48
2019-03-01T15:13:14.666Z,4.65
2019-03-01T15:15:43.226Z,4.42
2019-03-01T15:18:10.111Z,4.38
2019-03-01T15:20:36.848Z,4.48
2019-03-01T15:23:03.746Z,4.58
2019-03-01T15:25:30.797Z,4.45
2019-03-01T15:27:57.642Z,4.45
2019-03-01T15:30:24.333Z,4.39
2019-03-01T15:33:08.471Z,4.42
2019-03-01T15:35:36.409Z,4.24
2019-03-01T15:38:03.632Z,4.12
2019-03-01T15:40:31.478Z,4.20
2019-03-01T15:42:58.940Z,4.24
2019-03-01T15:45:25.845Z,4.33
2019-03-01T15:47:52.722Z,4.27
2019-03-01T15:50:19.523Z,4.02
2019-03-01T15:52:49.683Z,4.06
2019-03-01T15:55:15.003Z,3.96
2019-03-01T15:57:41.888Z,4.02
2019-03-01T16:00:12.888Z,3.85
2019-03-01T16:02:40.135Z,3.84
2019-03-01T16:05:10.446Z,3.73
2019-03-01T16:07:37.441Z,3.69
2019-03-01T16:10:09.577Z,3.62
2019-03-01T16:12:36.801Z,3.57
2019-03-01T16:15:09.983Z,3.29
2019-03-01T16:17:37.385Z,3.39
2019-03-01T16:20:09.212Z,3.30
2019-03-01T16:22:36.206Z,3.46
2019-03-01T16:25:09.168Z,3.48
2019-03-01T16:27:35.963Z,3.41
2019-03-01T16:30:09.504Z,3.32
2019-03-01T16:32:36.395Z,3.47
2019-03-01T16:35:06.998Z,3.37
2019-03-01T16:37:34.027Z,3.42
2019-03-01T16:40:01.442Z,3.39
2019-03-01T16:42:28.476Z,3.33
2019-03-01T16:44:55.188Z,3.30
2019-03-01T16:47:24.834Z,3.34
2019-03-01T16:49:51.472Z,3.34
2019-03-01T16:53:14.971Z,3.30
2019-03-01T16:55:41.621Z,3.27
2019-03-01T16:58:28.283Z,3.34
2019-03-01T17:00:55.344Z,3.30
2019-03-01T17:04:18.201Z,3.39
2019-03-01T17:06:45.400Z,3.36
2019-03-01T17:09:15.459Z,3.05
2019-03-01T17:11:42.448Z,3.14
2019-03-01T17:14:09.170Z,3.15
2019-03-01T17:16:35.850Z,3.03
2019-03-01T17:19:02.760Z,2.97
2019-03-01T17:21:29.474Z,3.00
2019-03-01T17:23:56.160Z,2.90
2019-03-01T17:26:22.723Z,2.97
2019-03-01T17:28:49.883Z,2.90
2019-03-01T17:31:17.923Z,2.95
2019-03-01T17:33:48.837Z,2.94
2019-03-01T17:36:16.798Z,2.94
2019-03-01T17:38:45.975Z,2.89
2019-03-01T17:41:11.385Z,2.91
2019-03-01T17:43:39.855Z,2.78
2019-03-01T17:47:06.126Z,2.96
2019-03-01T17:52:00.136Z,2.99
2019-03-01T17:54:26.836Z,2.87
2019-03-01T17:56:54.051Z,2.83
2019-03-01T17:59:23.328Z,2.98
2019-03-01T18:01:50.106Z,3.00
2019-03-01T18:05:12.998Z,2.64
2019-03-01T18:07:43.048Z,2.80
2019-03-01T18:10:12.967Z,2.53
2019-03-01T18:12:39.674Z,2.23
2019-03-01T18:15:12.508Z,2.33
2019-03-01T18:17:40.169Z,2.50
2019-03-01T18:20:10.924Z,2.39
2019-03-01T18:22:38.923Z,2.45
2019-03-01T18:25:10.416Z,2.46
2019-03-01T18:27:37.174Z,2.47
2019-03-01T18:30:10.726Z,2.58
2019-03-01T18:32:37.560Z,2.52
2019-03-01T18:35:11.284Z,2.44
2019-03-01T18:37:38.753Z,2.49
2019-03-01T18:40:13.445Z,2.25
2019-03-01T18:42:39.180Z,2.19
2019-03-01T18:45:11.563Z,1.93
2019-03-01T18:47:41.370Z,1.70
2019-03-01T18:50:12.894Z,1.69
2019-03-01T18:52:39.817Z,1.78
2019-03-01T18:55:09.627Z,1.85
2019-03-01T18:57:38.590Z,1.62
2019-03-01T19:00:11.002Z,1.74
2019-03-01T19:02:43.618Z,1.63
2019-03-01T19:05:11.344Z,1.77
2019-03-01T19:07:38.339Z,1.83
2019-03-01T19:10:10.277Z,1.95
2019-03-01T19:12:36.967Z,1.90
2019-03-01T19:15:12.152Z,2.15
2019-03-01T19:17:40.704Z,2.08
2019-03-01T19:20:12.262Z,1.75
2019-03-01T19:22:39.465Z,1.57
2019-03-01T19:25:09.552Z,1.46
2019-03-01T19:27:38.247Z,1.68
2019-03-01T19:30:13.756Z,1.83
2019-03-01T19:32:39.472Z,1.68
2019-03-01T19:35:08.348Z,1.64
2019-03-01T19:37:37.766Z,1.77
2019-03-01T19:40:12.979Z,1.67
2019-03-01T19:42:39.838Z,1.69
2019-03-01T19:45:11.668Z,1.77
2019-03-01T19:47:38.239Z,1.74
2019-03-01T19:50:09.988Z,1.63
2019-03-01T19:52:36.666Z,1.37
2019-03-01T19:55:08.045Z,1.34
2019-03-01T19:57:37.170Z,1.11
2019-03-01T20:00:09.542Z,1.19
2019-03-01T20:02:38.464Z,1.19
2019-03-01T20:05:10.497Z,1.30
2019-03-01T20:07:37.502Z,1.29
2019-03-01T20:10:11.647Z,1.20
2019-03-01T20:12:40.523Z,0.95
2019-03-01T20:15:15.141Z,0.98
2019-03-01T20:17:44.571Z,1.10
2019-03-01T20:20:15.131Z,1.01
2019-03-01T20:22:41.812Z,0.81
2019-03-01T20:25:16.211Z,0.84
2019-03-01T20:27:43.864Z,1.03
2019-03-01T20:30:16.325Z,0.78
2019-03-01T20:32:43.403Z,0.95
2019-03-01T20:35:12.821Z,0.89
2019-03-01T20:37:40.164Z,0.90
2019-03-01T20:40:12.024Z,0.75
2019-03-01T20:42:42.039Z,0.74
2019-03-01T20:45:16.734Z,0.59
2019-03-01T20:47:47.225Z,0.77
2019-03-01T20:50:15.605Z,0.84
2019-03-01T20:52:42.917Z,0.87
2019-03-01T20:55:11.416Z,0.83
2019-03-01T20:57:38.092Z,0.67
2019-03-01T21:00:10.478Z,0.71
2019-03-01T21:02:39.130Z,0.56
2019-03-01T21:05:09.829Z,0.59
2019-03-01T21:07:36.601Z,0.51
2019-03-01T21:10:08.995Z,0.67
2019-03-01T21:12:36.675Z,0.54
2019-03-01T21:15:07.476Z,0.22
2019-03-01T21:17:34.170Z,0.48
2019-03-01T21:20:01.080Z,0.48
2019-03-01T21:22:27.900Z,0.41
2019-03-01T21:24:54.598Z,0.42
2019-03-01T21:27:25.934Z,0.48
2019-03-01T21:29:51.736Z,0.37
2019-03-01T21:32:18.514Z,0.44
2019-03-01T21:34:46.645Z,0.48
2019-03-01T21:37:13.358Z,0.39
2019-03-01T21:39:40.033Z,0.13
2019-03-01T21:42:07.105Z,-0.01
2019-03-01T21:44:33.907Z,0.12
2019-03-01T21:47:00.868Z,0.20
2019-03-01T21:49:27.900Z,0.19
2019-03-01T21:51:55.135Z,0.32
2019-03-01T21:54:22.791Z,0.32
2019-03-01T21:56:55.826Z,0.39
2019-03-01T21:59:18.721Z,0.24
2019-03-01T22:01:45.379Z,0.13
2019-03-01T22:04:12.418Z,0.22
2019-03-01T22:06:39.084Z,0.18
2019-03-01T22:09:06.284Z,0.18
2019-03-01T22:11:34.938Z,0.11
2019-03-01T22:14:01.744Z,-0.01
2019-03-01T22:16:32.777Z,0.06
2019-03-01T22:18:58.702Z,0.16
2019-03-01T22:21:27.433Z,0.17
2019-03-01T22:23:56.041Z,0.09
2019-03-01T22:26:22.665Z,0.07
2019-03-01T22:28:49.334Z,0.11
2019-03-01T22:31:15.985Z,-0.02
2019-03-01T22:33:42.566Z,0.10
2019-03-01T22:36:09.132Z,-0.02
2019-03-01T22:38:37.621Z,0.01
2019-03-01T22:41:04.838Z,-0.12
2019-03-01T22:43:31.520Z,-0.07
2019-03-01T22:45:58.124Z,-0.09
2019-03-01T22:48:24.906Z,0.02
2019-03-01T22:50:51.526Z,-0.19
2019-03-01T22:53:18.140Z,-0.03
2019-03-01T22:55:44.814Z,-0.20
2019-03-01T22:58:11.459Z,-0.22
2019-03-01T23:00:43.888Z,-0.29
2019-03-01T23:03:12.098Z,-0.27
2019-03-01T23:05:39.217Z,-0.61
2019-03-01T23:08:06.372Z,-0.61
2019-03-01T23:10:32.951Z,-0.59
2019-03-01T23:12:59.661Z,-0.52
2019-03-01T23:15:26.252Z,-0.45
2019-03-01T23:17:52.935Z,-0.41
2019-03-01T23:20:26.293Z,-0.39
2019-03-01T23:22:50.422Z,-0.60
2019-03-01T23:25:17.024Z,-0.62
2019-03-01T23:27:43.650Z,-0.68
2019-03-01T23:30:10.524Z,-0.52
2019-03-01T23:32:37.556Z,-0.40
2019-03-01T23:35:04.747Z,-0.44
2019-03-01T23:37:31.396Z,-0.46
2019-03-01T23:40:00.932Z,-0.60
2019-03-01T23:42:31.185Z,-0.38
2019-03-01T23:44:57.831Z,-0.34
2019-03-01T23:47:24.494Z,-0.45
2019-03-01T23:49:51.139Z,-0.57
2019-03-01T23:52:19.631Z,-0.48
2019-03-01T23:54:47.831Z,-0.47
2019-03-01T23:57:14.729Z,-0.43
2019-03-01T23:59:41.448Z,-0.54
